Smithton, MO

6:38 PM CST on March 05, 2015 (GMT -0600)
Sedalia Memorial | Change Station
CLOSE
Current Station
Airport
Location: Sedalia,
Elevation: 909 ft
Nearby Weather Stations

Elev 909 ft 38.71 °N, 93.18 °W | Updated 45 minutes ago

Clear
Clear
28 °F
Feels Like 28 °F
N
0
Wind Variable Wind from North

Today
High -- | Low -- °F
--% Chance of Precip.
Yesterday
High -- | Low -- °F
Precip. -- in
6:39 AM 6:09 PM
Full, 100% visible
Pressure 30.58 in
Visibility 10.0 miles
Clouds Clear
Dew Point 7 °F
Humidity 41%
Rainfall 0.00 in
Snow Depth Not available.
UV 0 out of 12
Pollen 1.80 out of 12
Air Quality Not available.
Flu Activity Not available.
METAR KDMO 052353Z AUTO 00000KT 10SM CLR M02/M14 A3053 RMK AO2 SLP353 T10221139 11011 21056 53000

More Conditions Fewer Conditions

Pressure 30.58 in
Visibility 10.0 miles
Clouds Clear
Dew Point 7 °F
Humidity 41%
Rainfall 0.00 in
Snow Depth Not available.
UV 0 out of 12
Pollen 1.80 out of 12
Air Quality Not available.
Flu Activity Not available.
METAR KDMO 052353Z AUTO 00000KT 10SM CLR M02/M14 A3053 RMK AO2 SLP353 T10221139 11011 21056 53000

More Conditions Fewer Conditions

10-Day Weather Forecast

Almanac

Astronomy

Mar. 05, 2015 Rise Set
Actual Time
Civil Twilight
Nautical Twilight
Astronomical Twilight
Moon
Length of Visible Light
Length of Day
Tomorrow will be .
, % of the Moon is Illuminated

Today's Extremes

State Highs State Lows

Community

WunderPhotos

Upload Photos

1,803,071 photos uploaded!

WunderBlogs® & News

Nearby

Air Quality

  Air Quality AQ Index Pollutant
Not available.

Snow Depth

Station Depth Elevation

Earthquake Activity

City Distance Mag. Time & Date
Minimum magnitude displayed is 2.5.

Coastal Water Temperatures

Place Temperature

Nearby Weather Stations